PWSweather.com
Personal Weather Stations
Station Observations
KAKWILLO2
Kelly Lake, Willow, AK 99688

Kelly LakeWillow, AK 99688

Lat: 61.713859, Lon: -150.021621

Elevation: 250

Station Type: Davis Vantage PRO2

http://www.willowweather.com

Latest ConditionsUpdated 1:10:04 AM AKST Thursday, Jun 21, 2018
Currently Today's Max Today's Min Today's Average
Temperature 56.1°F13.4°C 57.4°F14.1°C 56.1°F13.4°C 56.7°F13.7°C
Dew Point 51.3°F10.7°C 52.6°F11.4°C 51.3°F10.7°C 52.0°F11.1°C
Winds Calm Calm Calm -Calm - - Calm Calm
Wind Gusts -- -- - -
Humidity 84% 85% 83% 84%
Pressure 29.71 in1006.1 mb 29.72 in1006.4 mb 29.71 in1006.1 mb -
Hour Temp Dew Point Humidity Winds Wind Gusts Pressure Precip Precip Rate Daily Precip Total
01:10 AM 56.1°F13.4°C 51.3°F10.7°C 84% Calm Calm -- 29.71 in1006.1 mb - 0.00 in0.0 mm 0.00 in0.0 mm
01:09 AM 56.1°F13.4°C 51.3°F10.7°C 84% Calm Calm -- 29.71 in1006.1 mb - 0.00 in0.0 mm 0.00 in0.0 mm
01:08 AM 56.1°F13.4°C 51.3°F10.7°C 84% Calm Calm -- 29.71 in1006.1 mb - 0.00 in0.0 mm 0.00 in0.0 mm
01:07 AM 56.1°F13.4°C 51.3°F10.7°C 84% Calm Calm -- 29.71 in1006.1 mb - 0.00 in0.0 mm 0.00 in0.0 mm
01:06 AM 56.1°F13.4°C 51.3°F10.7°C 84% Calm Calm -- 29.71 in1006.1 mb - 0.00 in0.0 mm 0.00 in0.0 mm
01:05 AM 56.1°F13.4°C 51.3°F10.7°C 84% Calm Calm -- 29.71 in1006.1 mb - 0.00 in0.0 mm 0.00 in0.0 mm
01:04 AM 56.2°F13.4°C 51.4°F10.8°C 84% Calm Calm -- 29.71 in1006.1 mb - 0.00 in0.0 mm 0.00 in0.0 mm
01:03 AM 56.2°F13.4°C 51.4°F10.8°C 84% Calm Calm -- 29.71 in1006.1 mb - 0.00 in0.0 mm 0.00 in0.0 mm
01:02 AM 56.2°F13.4°C 51.4°F10.8°C 84% Calm Calm -- 29.71 in1006.1 mb - 0.00 in0.0 mm 0.00 in0.0 mm
01:01 AM 56.2°F13.4°C 51.4°F10.8°C 84% Calm Calm -- 29.71 in1006.1 mb - 0.00 in0.0 mm 0.00 in0.0 mm
01:00 AM 56.2°F13.4°C 51.4°F10.8°C 84% Calm Calm -- 29.71 in1006.1 mb - 0.00 in0.0 mm 0.00 in0.0 mm
12:59 AM 56.2°F13.4°C 51.7°F10.9°C 85% Calm Calm -- 29.71 in1006.1 mb - 0.00 in0.0 mm 0.00 in0.0 mm
12:58 AM 56.2°F13.4°C 51.8°F11.0°C 85% Calm Calm -- 29.71 in1006.1 mb - 0.00 in0.0 mm 0.00 in0.0 mm
12:57 AM 56.2°F13.4°C 51.8°F11.0°C 85% Calm Calm -- 29.71 in1006.1 mb - 0.00 in0.0 mm 0.00 in0.0 mm
12:56 AM 56.3°F13.5°C 51.8°F11.0°C 85% Calm Calm -- 29.71 in1006.1 mb - 0.00 in0.0 mm 0.00 in0.0 mm
12:55 AM 56.3°F13.5°C 51.8°F11.0°C 85% Calm Calm -- 29.71 in1006.1 mb - 0.00 in0.0 mm 0.00 in0.0 mm
12:54 AM 56.3°F13.5°C 51.8°F11.0°C 85% Calm Calm -- 29.71 in1006.1 mb - 0.00 in0.0 mm 0.00 in0.0 mm
12:53 AM 56.3°F13.5°C 51.8°F11.0°C 85% Calm Calm -- 29.71 in1006.1 mb - 0.00 in0.0 mm 0.00 in0.0 mm
12:52 AM 56.3°F13.5°C 51.8°F11.0°C 85% Calm Calm -- 29.71 in1006.1 mb - 0.00 in0.0 mm 0.00 in0.0 mm
12:51 AM 56.3°F13.5°C 51.8°F11.0°C 85% Calm Calm -- 29.71 in1006.1 mb - 0.00 in0.0 mm 0.00 in0.0 mm
12:50 AM 56.3°F13.5°C 51.9°F11.1°C 85% Calm Calm -- 29.71 in1006.1 mb - 0.00 in0.0 mm 0.00 in0.0 mm
12:49 AM 56.4°F13.6°C 51.9°F11.1°C 85% Calm Calm -- 29.71 in1006.1 mb - 0.00 in0.0 mm 0.00 in0.0 mm
12:48 AM 56.4°F13.6°C 51.9°F11.1°C 85% Calm Calm -- 29.71 in1006.1 mb - 0.00 in0.0 mm 0.00 in0.0 mm
12:47 AM 56.4°F13.6°C 51.9°F11.1°C 85% Calm Calm -- 29.71 in1006.1 mb - 0.00 in0.0 mm 0.00 in0.0 mm
12:46 AM 56.4°F13.6°C 51.9°F11.1°C 85% Calm Calm -- 29.71 in1006.1 mb - 0.00 in0.0 mm 0.00 in0.0 mm
12:45 AM 56.4°F13.6°C 52.0°F11.1°C 85% Calm Calm -- 29.71 in1006.1 mb - 0.00 in0.0 mm 0.00 in0.0 mm
12:44 AM 56.5°F13.6°C 51.7°F10.9°C 84% Calm Calm -- 29.71 in1006.1 mb - 0.00 in0.0 mm 0.00 in0.0 mm
12:43 AM 56.5°F13.6°C 51.7°F10.9°C 84% Calm Calm -- 29.71 in1006.1 mb - 0.00 in0.0 mm 0.00 in0.0 mm
12:42 AM 56.5°F13.6°C 51.7°F10.9°C 84% Calm Calm -- 29.71 in1006.1 mb - 0.00 in0.0 mm 0.00 in0.0 mm
12:41 AM 56.5°F13.6°C 51.8°F11.0°C 84% Calm Calm -- 29.71 in1006.1 mb - 0.00 in0.0 mm 0.00 in0.0 mm
12:40 AM 56.6°F13.7°C 51.8°F11.0°C 84% Calm Calm -- 29.71 in1006.1 mb - 0.00 in0.0 mm 0.00 in0.0 mm
12:39 AM 56.6°F13.7°C 51.8°F11.0°C 84% Calm Calm -- 29.71 in1006.1 mb - 0.00 in0.0 mm 0.00 in0.0 mm
12:38 AM 56.6°F13.7°C 51.8°F11.0°C 84% Calm Calm -- 29.71 in1006.1 mb - 0.00 in0.0 mm 0.00 in0.0 mm
12:37 AM 56.7°F13.7°C 51.9°F11.1°C 84% Calm Calm -- 29.71 in1006.1 mb - 0.00 in0.0 mm 0.00 in0.0 mm
12:36 AM 56.7°F13.7°C 51.9°F11.1°C 84% Calm Calm -- 29.71 in1006.1 mb - 0.00 in0.0 mm 0.00 in0.0 mm
12:35 AM 56.7°F13.7°C 51.9°F11.1°C 84% Calm Calm -- 29.71 in1006.1 mb - 0.00 in0.0 mm 0.00 in0.0 mm
12:34 AM 56.7°F13.7°C 52.0°F11.1°C 84% Calm Calm -- 29.71 in1006.1 mb - 0.00 in0.0 mm 0.00 in0.0 mm
12:33 AM 56.8°F13.8°C 52.0°F11.1°C 84% Calm Calm -- 29.71 in1006.1 mb - 0.00 in0.0 mm 0.00 in0.0 mm
12:32 AM 56.8°F13.8°C 52.0°F11.1°C 84% Calm Calm -- 29.71 in1006.1 mb - 0.00 in0.0 mm 0.00 in0.0 mm
12:31 AM 56.8°F13.8°C 52.0°F11.1°C 84% Calm Calm -- 29.71 in1006.1 mb - 0.00 in0.0 mm 0.00 in0.0 mm
12:30 AM 56.8°F13.8°C 52.0°F11.1°C 84% Calm Calm -- 29.71 in1006.1 mb - 0.00 in0.0 mm 0.00 in0.0 mm
12:29 AM 56.8°F13.8°C 52.1°F11.2°C 84% Calm Calm -- 29.71 in1006.1 mb - 0.00 in0.0 mm 0.00 in0.0 mm
12:28 AM 56.9°F13.8°C 52.1°F11.2°C 84% Calm Calm -- 29.71 in1006.1 mb - 0.00 in0.0 mm 0.00 in0.0 mm
12:27 AM 56.9°F13.8°C 52.1°F11.2°C 84% Calm Calm -- 29.71 in1006.1 mb - 0.00 in0.0 mm 0.00 in0.0 mm
12:26 AM 56.9°F13.8°C 52.1°F11.2°C 84% Calm Calm -- 29.71 in1006.1 mb - 0.00 in0.0 mm 0.00 in0.0 mm
12:25 AM 56.9°F13.8°C 52.1°F11.2°C 84% Calm Calm -- 29.71 in1006.1 mb - 0.00 in0.0 mm 0.00 in0.0 mm
12:24 AM 56.9°F13.8°C 52.2°F11.2°C 84% Calm Calm -- 29.71 in1006.1 mb - 0.00 in0.0 mm 0.00 in0.0 mm
12:23 AM 57.0°F13.9°C 52.2°F11.2°C 84% Calm Calm -- 29.71 in1006.1 mb - 0.00 in0.0 mm 0.00 in0.0 mm
12:22 AM 57.0°F13.9°C 52.5°F11.4°C 85% Calm Calm -- 29.71 in1006.1 mb - 0.00 in0.0 mm 0.00 in0.0 mm
12:21 AM 57.0°F13.9°C 52.2°F11.2°C 84% Calm Calm -- 29.71 in1006.1 mb - 0.00 in0.0 mm 0.00 in0.0 mm
12:20 AM 57.0°F13.9°C 52.2°F11.2°C 84% Calm Calm -- 29.71 in1006.1 mb - 0.00 in0.0 mm 0.00 in0.0 mm
12:19 AM 57.0°F13.9°C 52.6°F11.4°C 85% Calm Calm -- 29.71 in1006.1 mb - 0.00 in0.0 mm 0.00 in0.0 mm
12:18 AM 57.1°F13.9°C 52.6°F11.4°C 85% Calm Calm -- 29.71 in1006.1 mb - 0.00 in0.0 mm 0.00 in0.0 mm
12:17 AM 57.1°F13.9°C 52.3°F11.3°C 84% Calm Calm -- 29.71 in1006.1 mb - 0.00 in0.0 mm 0.00 in0.0 mm
12:16 AM 57.1°F13.9°C 52.3°F11.3°C 84% Calm Calm -- 29.71 in1006.1 mb - 0.00 in0.0 mm 0.00 in0.0 mm
12:15 AM 57.1°F13.9°C 52.0°F11.1°C 83% Calm Calm -- 29.71 in1006.1 mb - 0.00 in0.0 mm 0.00 in0.0 mm
12:14 AM 57.1°F13.9°C 52.0°F11.1°C 83% Calm Calm -- 29.71 in1006.1 mb - 0.00 in0.0 mm 0.00 in0.0 mm
12:13 AM 57.2°F14.0°C 52.0°F11.1°C 83% Calm Calm -- 29.72 in1006.4 mb - 0.00 in0.0 mm 0.00 in0.0 mm
12:12 AM 57.2°F14.0°C 52.4°F11.3°C 84% Calm Calm -- 29.72 in1006.4 mb - 0.00 in0.0 mm 0.00 in0.0 mm
12:11 AM 57.2°F14.0°C 52.4°F11.3°C 84% Calm Calm -- 29.72 in1006.4 mb - 0.00 in0.0 mm 0.00 in0.0 mm
12:10 AM 57.2°F14.0°C 52.4°F11.3°C 84% Calm Calm -- 29.72 in1006.4 mb - 0.00 in0.0 mm 0.00 in0.0 mm
12:09 AM 57.2°F14.0°C 52.5°F11.4°C 84% Calm Calm -- 29.71 in1006.1 mb - 0.00 in0.0 mm 0.00 in0.0 mm
12:08 AM 57.2°F14.0°C 52.4°F11.3°C 84% Calm Calm -- 29.71 in1006.1 mb - 0.00 in0.0 mm 0.00 in0.0 mm
12:07 AM 57.3°F14.1°C 52.5°F11.4°C 84% Calm Calm -- 29.71 in1006.1 mb - 0.00 in0.0 mm 0.00 in0.0 mm
12:06 AM 57.3°F14.1°C 52.5°F11.4°C 84% Calm Calm -- 29.71 in1006.1 mb - 0.00 in0.0 mm 0.00 in0.0 mm
12:05 AM 57.3°F14.1°C 52.5°F11.4°C 84% Calm Calm -- 29.71 in1006.1 mb - 0.00 in0.0 mm 0.00 in0.0 mm
12:04 AM 57.3°F14.1°C 52.5°F11.4°C 84% Calm Calm -- 29.71 in1006.1 mb - 0.00 in0.0 mm 0.00 in0.0 mm
12:03 AM 57.3°F14.1°C 52.2°F11.2°C 83% Calm Calm -- 29.71 in1006.1 mb - 0.00 in0.0 mm 0.00 in0.0 mm
12:02 AM 57.4°F14.1°C 52.2°F11.2°C 83% Calm Calm -- 29.71 in1006.1 mb - 0.00 in0.0 mm 0.00 in0.0 mm
12:01 AM 57.4°F14.1°C 52.3°F11.3°C 83% Calm Calm -- 29.71 in1006.1 mb - 0.00 in0.0 mm 0.00 in0.0 mm
12:00 AM 57.4°F14.1°C 52.3°F11.3°C 83% Calm Calm -- 29.71 in1006.1 mb - 0.00 in0.0 mm 0.00 in0.0 mm